createdAt,value
2022-08-17T00:00:34.492Z,18.00
2022-08-17T00:03:08.444Z,18.00
2022-08-17T00:05:41.205Z,18.00
2022-08-17T00:08:11.087Z,18.00
2022-08-17T00:10:39.770Z,18.00
2022-08-17T00:13:09.334Z,18.00
2022-08-17T00:15:37.164Z,18.00
2022-08-17T00:19:01.792Z,17.90
2022-08-17T00:20:53.545Z,17.90
2022-08-17T00:23:22.668Z,17.80
2022-08-17T00:25:50.993Z,17.80
2022-08-17T00:28:19.504Z,17.80
2022-08-17T00:30:53.504Z,17.80
2022-08-17T00:33:24.606Z,17.80
2022-08-17T00:35:53.596Z,17.80
2022-08-17T00:38:23.604Z,17.80
2022-08-17T00:40:55.915Z,17.80
2022-08-17T00:43:29.952Z,17.80
2022-08-17T00:45:58.237Z,17.70
2022-08-17T00:48:29.113Z,17.70
2022-08-17T00:51:02.557Z,17.60
2022-08-17T00:53:34.053Z,17.70
2022-08-17T00:56:04.206Z,17.80
2022-08-17T00:58:35.939Z,17.70
2022-08-17T01:01:05.205Z,17.70
2022-08-17T01:03:33.768Z,17.70
2022-08-17T01:06:02.893Z,17.60
2022-08-17T01:08:33.049Z,17.60
2022-08-17T01:11:03.115Z,17.50
2022-08-17T01:13:41.167Z,17.60
2022-08-17T01:16:16.555Z,17.50
2022-08-17T01:18:46.191Z,17.40
2022-08-17T01:21:21.245Z,17.30
2022-08-17T01:23:50.467Z,17.30
2022-08-17T01:26:19.436Z,17.20
2022-08-17T01:28:54.602Z,17.20
2022-08-17T01:31:25.570Z,17.20
2022-08-17T01:33:53.694Z,17.20
2022-08-17T01:36:22.491Z,17.20
2022-08-17T01:38:51.757Z,17.10
2022-08-17T01:41:22.913Z,17.10
2022-08-17T01:43:55.007Z,17.00
2022-08-17T01:46:24.983Z,17.00
2022-08-17T01:48:52.819Z,16.90
2022-08-17T01:51:21.458Z,16.90
2022-08-17T01:53:53.620Z,16.90
2022-08-17T01:56:25.235Z,16.90
2022-08-17T01:58:54.194Z,16.90
2022-08-17T02:01:24.784Z,16.90
2022-08-17T02:03:53.240Z,16.90
2022-08-17T02:06:28.481Z,16.90
2022-08-17T02:09:03.505Z,16.90
2022-08-17T02:11:33.550Z,16.90
2022-08-17T02:14:04.090Z,16.90
2022-08-17T02:16:37.323Z,16.90
2022-08-17T02:19:07.045Z,17.00
2022-08-17T02:21:34.965Z,17.00
2022-08-17T02:24:05.408Z,17.00
2022-08-17T02:26:33.386Z,17.00
2022-08-17T02:29:01.100Z,17.00
2022-08-17T02:31:31.064Z,17.10
2022-08-17T02:34:03.874Z,17.10
2022-08-17T02:36:33.561Z,17.00
2022-08-17T02:39:01.807Z,17.00
2022-08-17T02:41:31.002Z,17.00
2022-08-17T02:43:58.777Z,16.90
2022-08-17T02:46:27.077Z,16.90
2022-08-17T02:48:54.978Z,16.90
2022-08-17T02:51:22.858Z,16.90
2022-08-17T02:53:50.856Z,16.80
2022-08-17T02:56:18.920Z,16.80
2022-08-17T02:58:48.049Z,16.70
2022-08-17T03:01:15.815Z,16.70
2022-08-17T03:03:43.801Z,16.70
2022-08-17T03:06:11.634Z,16.70
2022-08-17T03:08:40.565Z,16.70
2022-08-17T03:11:08.494Z,16.70
2022-08-17T03:13:36.334Z,16.70
2022-08-17T03:16:05.777Z,16.70
2022-08-17T03:18:33.690Z,16.60
2022-08-17T03:21:04.344Z,16.60
2022-08-17T03:23:32.701Z,16.60
2022-08-17T03:26:00.988Z,16.50
2022-08-17T03:28:29.877Z,16.50
2022-08-17T03:30:57.650Z,16.50
2022-08-17T03:33:26.776Z,16.50
2022-08-17T03:35:54.555Z,16.40
2022-08-17T03:38:22.372Z,16.50
2022-08-17T03:40:56.328Z,16.80
2022-08-17T03:43:28.791Z,16.90
2022-08-17T03:46:27.624Z,16.90
2022-08-17T03:49:17.155Z,16.90
2022-08-17T03:52:02.690Z,16.80
2022-08-17T03:54:47.939Z,16.70
2022-08-17T03:57:16.335Z,16.60
2022-08-17T03:59:45.029Z,16.50
2022-08-17T04:02:16.528Z,16.50
2022-08-17T04:04:45.741Z,16.50
2022-08-17T04:07:13.531Z,16.40
2022-08-17T04:09:42.884Z,16.40
2022-08-17T04:12:10.906Z,16.40
2022-08-17T04:14:51.952Z,16.30
2022-08-17T04:17:22.087Z,16.30
2022-08-17T04:19:51.176Z,16.20
2022-08-17T04:22:32.622Z,16.20
2022-08-17T04:25:03.863Z,16.40
2022-08-17T04:27:31.768Z,16.60
2022-08-17T04:29:59.589Z,16.60
2022-08-17T04:33:19.178Z,16.70
2022-08-17T04:35:20.639Z,16.60
2022-08-17T04:37:48.425Z,16.50
2022-08-17T04:40:34.730Z,16.50
2022-08-17T04:43:04.530Z,16.60
2022-08-17T04:45:32.731Z,16.60
2022-08-17T04:48:01.094Z,16.60
2022-08-17T04:50:30.181Z,16.60
2022-08-17T04:52:58.119Z,16.60
2022-08-17T04:55:26.213Z,16.60
2022-08-17T04:57:54.064Z,16.70
2022-08-17T05:00:21.915Z,16.70
2022-08-17T05:02:51.143Z,16.90
2022-08-17T05:05:20.827Z,17.10
2022-08-17T05:07:52.353Z,17.30
2022-08-17T05:10:20.784Z,17.40
2022-08-17T05:12:49.462Z,17.40
2022-08-17T05:15:17.327Z,17.40
2022-08-17T05:17:48.110Z,17.50
2022-08-17T05:20:16.013Z,17.70
2022-08-17T05:22:52.373Z,17.90
2022-08-17T05:25:22.553Z,18.00
2022-08-17T05:27:53.962Z,18.20
2022-08-17T05:30:22.628Z,18.30
2022-08-17T05:32:55.429Z,18.40
2022-08-17T05:35:24.174Z,18.60
2022-08-17T05:37:54.168Z,18.80
2022-08-17T05:40:25.943Z,19.00
2022-08-17T05:43:04.197Z,19.10
2022-08-17T05:45:55.691Z,19.30
2022-08-17T05:48:21.727Z,19.40
2022-08-17T05:51:24.870Z,19.50
2022-08-17T05:54:07.819Z,19.60
2022-08-17T05:56:52.692Z,19.70
2022-08-17T05:59:30.346Z,19.90
2022-08-17T06:02:06.270Z,20.00
2022-08-17T06:04:46.149Z,20.00
2022-08-17T06:07:21.722Z,20.00
2022-08-17T06:09:59.382Z,19.90
2022-08-17T06:12:41.018Z,19.90
2022-08-17T06:15:24.625Z,20.00
2022-08-17T06:17:56.896Z,20.00
2022-08-17T06:20:28.040Z,20.10
2022-08-17T06:23:02.789Z,20.20
2022-08-17T06:25:37.992Z,20.30
2022-08-17T06:28:09.487Z,20.40
2022-08-17T06:30:59.657Z,20.40
2022-08-17T06:33:34.091Z,20.50
2022-08-17T06:36:09.790Z,20.70
2022-08-17T06:38:45.403Z,20.80
2022-08-17T06:41:21.829Z,21.00
2022-08-17T06:44:07.909Z,21.10
2022-08-17T06:46:38.369Z,21.30
2022-08-17T06:49:14.838Z,21.40
2022-08-17T06:51:46.578Z,21.50
2022-08-17T06:54:21.278Z,21.80
2022-08-17T06:56:58.340Z,22.00
2022-08-17T06:59:55.924Z,22.20
2022-08-17T07:02:28.940Z,22.40
2022-08-17T07:04:57.648Z,22.50
2022-08-17T07:07:43.286Z,22.70
2022-08-17T07:10:11.798Z,23.00
2022-08-17T07:12:44.091Z,23.20
2022-08-17T07:15:15.655Z,23.40
2022-08-17T07:17:48.386Z,23.60
2022-08-17T07:20:20.537Z,23.80
2022-08-17T07:22:59.830Z,23.90
2022-08-17T07:25:30.451Z,24.00
2022-08-17T07:28:02.430Z,24.20
2022-08-17T07:30:44.682Z,24.50
2022-08-17T07:33:20.253Z,24.60
2022-08-17T07:35:50.133Z,24.80
2022-08-17T07:38:25.647Z,25.00
2022-08-17T07:41:03.660Z,25.20
2022-08-17T07:43:34.894Z,25.40
2022-08-17T07:46:39.114Z,25.60
2022-08-17T07:49:33.496Z,25.80
2022-08-17T07:52:26.978Z,26.10
2022-08-17T07:54:52.091Z,26.30
2022-08-17T07:57:35.562Z,26.70
2022-08-17T08:00:31.848Z,27.00
2022-08-17T08:03:18.196Z,27.30
2022-08-17T08:05:52.404Z,27.70
2022-08-17T08:08:26.606Z,28.10
2022-08-17T08:11:04.356Z,28.40
2022-08-17T08:13:33.174Z,28.70
2022-08-17T08:16:21.491Z,29.10
2022-08-17T08:18:56.897Z,29.40
2022-08-17T08:21:36.494Z,29.50
2022-08-17T08:24:22.711Z,30.10
2022-08-17T08:26:59.020Z,31.40
2022-08-17T08:29:37.972Z,33.30
2022-08-17T08:32:14.415Z,34.90
2022-08-17T08:35:01.886Z,37.70
2022-08-17T08:37:43.533Z,39.80
2022-08-17T08:40:26.574Z,42.10
2022-08-17T08:43:03.462Z,43.70
2022-08-17T08:45:39.165Z,44.90
2022-08-17T08:48:23.055Z,45.60
2022-08-17T08:51:14.704Z,45.00
2022-08-17T08:53:49.106Z,45.40
2022-08-17T08:56:23.161Z,45.60
2022-08-17T08:58:54.910Z,45.80
2022-08-17T09:01:28.758Z,45.90
2022-08-17T09:04:24.573Z,46.70
2022-08-17T09:07:06.092Z,46.20
2022-08-17T09:09:41.109Z,46.10
2022-08-17T09:12:15.368Z,45.70
2022-08-17T09:14:49.872Z,45.80
2022-08-17T09:17:22.230Z,46.50
2022-08-17T09:19:55.577Z,47.10
2022-08-17T09:22:31.635Z,46.40
2022-08-17T09:25:06.957Z,46.60
2022-08-17T09:27:46.383Z,47.00
2022-08-17T09:30:15.623Z,47.40
2022-08-17T09:32:47.061Z,47.60
2022-08-17T09:35:19.936Z,46.80
2022-08-17T09:37:56.960Z,46.70
2022-08-17T09:40:29.683Z,45.50
2022-08-17T09:43:02.701Z,46.10
2022-08-17T09:45:36.279Z,46.30
2022-08-17T09:48:12.182Z,46.90
2022-08-17T09:51:03.747Z,47.10
2022-08-17T09:53:34.923Z,46.70
2022-08-17T09:56:29.942Z,46.70
2022-08-17T09:59:16.838Z,47.50
2022-08-17T10:01:50.514Z,46.70
2022-08-17T10:04:40.870Z,46.50
2022-08-17T10:07:16.225Z,45.80
2022-08-17T10:09:56.418Z,46.00
2022-08-17T10:12:34.368Z,45.90
2022-08-17T10:15:15.537Z,45.60
2022-08-17T10:18:09.035Z,45.20
2022-08-17T10:20:46.632Z,45.30
2022-08-17T10:23:36.776Z,44.80
2022-08-17T10:26:16.095Z,44.70
2022-08-17T10:28:50.881Z,44.10
2022-08-17T10:31:40.053Z,42.90
2022-08-17T10:34:44.246Z,42.80
2022-08-17T10:37:34.053Z,42.90
2022-08-17T10:40:19.881Z,42.80
2022-08-17T10:42:52.116Z,41.40
2022-08-17T10:45:26.438Z,40.80
2022-08-17T10:48:05.853Z,40.90
2022-08-17T10:50:49.658Z,39.60
2022-08-17T10:53:50.652Z,37.60
2022-08-17T10:56:23.177Z,35.70
2022-08-17T10:58:54.443Z,34.30
2022-08-17T11:01:46.677Z,33.70
2022-08-17T11:04:32.050Z,33.70
2022-08-17T11:07:08.641Z,33.40
2022-08-17T11:09:53.506Z,33.10
2022-08-17T11:12:36.807Z,32.70
2022-08-17T11:15:24.916Z,32.40
2022-08-17T11:18:46.840Z,32.30
2022-08-17T11:21:52.008Z,32.30
2022-08-17T11:24:23.178Z,32.50
2022-08-17T11:27:12.050Z,32.60
2022-08-17T11:29:53.579Z,32.80
2022-08-17T11:32:37.676Z,32.90
2022-08-17T11:35:13.703Z,33.20
2022-08-17T11:37:54.426Z,33.50
2022-08-17T11:40:41.238Z,33.80
2022-08-17T11:43:28.030Z,33.80
2022-08-17T11:46:06.214Z,33.80
2022-08-17T11:48:59.252Z,34.20
2022-08-17T11:52:05.427Z,34.40
2022-08-17T11:54:44.058Z,34.40
2022-08-17T11:57:47.452Z,34.10
2022-08-17T12:00:49.629Z,34.10
2022-08-17T12:03:24.751Z,33.90
2022-08-17T12:06:01.953Z,33.80
2022-08-17T12:08:32.612Z,34.10
2022-08-17T12:11:05.389Z,34.50
2022-08-17T12:13:48.373Z,34.70
2022-08-17T12:16:17.771Z,34.70
2022-08-17T12:18:51.259Z,34.60
2022-08-17T12:21:32.896Z,34.40
2022-08-17T12:24:07.420Z,34.10
2022-08-17T12:26:37.756Z,34.00
2022-08-17T12:29:09.300Z,34.20
2022-08-17T12:31:48.291Z,34.40
2022-08-17T12:34:19.005Z,34.50
2022-08-17T12:36:49.370Z,34.30
2022-08-17T12:39:21.794Z,34.30
2022-08-17T12:42:01.546Z,34.20
2022-08-17T12:44:32.355Z,34.00
2022-08-17T12:47:19.393Z,33.60
2022-08-17T12:49:51.378Z,33.40
2022-08-17T12:52:23.656Z,33.20
2022-08-17T12:54:55.400Z,33.10
2022-08-17T12:57:28.260Z,33.20
2022-08-17T12:59:59.747Z,33.50
2022-08-17T13:02:32.119Z,33.70
2022-08-17T13:05:02.241Z,33.90
2022-08-17T13:07:34.311Z,33.80
2022-08-17T13:10:02.871Z,33.70
2022-08-17T13:12:35.176Z,33.60
2022-08-17T13:15:03.498Z,33.60
2022-08-17T13:17:35.781Z,33.50
2022-08-17T13:20:06.189Z,33.40
2022-08-17T13:22:34.078Z,33.10
2022-08-17T13:25:05.506Z,33.00
2022-08-17T13:27:34.921Z,32.80
2022-08-17T13:30:08.211Z,32.80
2022-08-17T13:32:43.000Z,32.90
2022-08-17T13:35:39.259Z,33.10
2022-08-17T13:38:10.907Z,33.20
2022-08-17T13:40:52.925Z,33.10
2022-08-17T13:43:44.952Z,33.10
2022-08-17T13:46:19.662Z,32.80
2022-08-17T13:48:57.045Z,32.70
2022-08-17T13:51:28.846Z,32.70
2022-08-17T13:54:03.573Z,32.80
2022-08-17T13:56:39.524Z,32.90
2022-08-17T13:59:12.260Z,32.90
2022-08-17T14:01:42.102Z,33.00
2022-08-17T14:04:12.550Z,33.10
2022-08-17T14:06:52.275Z,33.10
2022-08-17T14:09:23.835Z,33.00
2022-08-17T14:11:52.727Z,32.90
2022-08-17T14:14:23.602Z,32.80
2022-08-17T14:16:51.642Z,32.70
2022-08-17T14:19:21.844Z,32.70
2022-08-17T14:21:50.165Z,32.70
2022-08-17T14:24:23.599Z,32.80
2022-08-17T14:26:53.182Z,33.00
2022-08-17T14:29:24.291Z,33.10
2022-08-17T14:31:54.447Z,33.20
2022-08-17T14:34:22.856Z,33.20
2022-08-17T14:36:50.963Z,33.20
2022-08-17T14:39:21.010Z,33.00
2022-08-17T14:41:49.102Z,32.70
2022-08-17T14:44:17.042Z,32.60
2022-08-17T14:46:46.306Z,32.50
2022-08-17T14:49:15.617Z,32.70
2022-08-17T14:51:44.249Z,32.90
2022-08-17T14:54:32.977Z,32.90
2022-08-17T14:57:22.566Z,33.00
2022-08-17T14:59:54.614Z,33.10
2022-08-17T15:02:30.234Z,33.10
2022-08-17T15:05:00.301Z,33.20
2022-08-17T15:07:30.099Z,33.20
2022-08-17T15:10:00.777Z,33.30
2022-08-17T15:12:32.765Z,33.30
2022-08-17T15:15:01.764Z,33.40
2022-08-17T15:17:45.277Z,33.40
2022-08-17T15:20:15.926Z,33.40
2022-08-17T15:22:45.191Z,33.30
2022-08-17T15:25:14.136Z,33.10
2022-08-17T15:27:42.134Z,33.00
2022-08-17T15:30:11.704Z,32.90
2022-08-17T15:32:50.995Z,32.80
2022-08-17T15:35:19.909Z,32.50
2022-08-17T15:37:55.551Z,32.30
2022-08-17T15:40:23.305Z,32.00
2022-08-17T15:42:51.231Z,31.90
2022-08-17T15:45:24.550Z,31.80
2022-08-17T15:47:53.859Z,31.70
2022-08-17T15:50:21.722Z,31.80
2022-08-17T15:52:56.342Z,31.80
2022-08-17T15:55:24.475Z,31.80
2022-08-17T15:57:53.026Z,31.80
2022-08-17T16:00:23.936Z,31.70
2022-08-17T16:03:32.004Z,31.70
2022-08-17T16:05:42.436Z,31.60
2022-08-17T16:08:11.125Z,31.50
2022-08-17T16:10:42.498Z,31.40
2022-08-17T16:13:17.596Z,31.40
2022-08-17T16:15:51.075Z,31.20
2022-08-17T16:18:30.725Z,31.20
2022-08-17T16:21:19.038Z,31.00
2022-08-17T16:23:47.018Z,30.90
2022-08-17T16:26:14.788Z,30.70
2022-08-17T16:28:42.544Z,30.40
2022-08-17T16:31:10.454Z,30.30
2022-08-17T16:33:40.267Z,30.10
2022-08-17T16:36:08.913Z,30.00
2022-08-17T16:38:38.509Z,29.90
2022-08-17T16:41:07.134Z,29.70
2022-08-17T16:43:36.008Z,29.60
2022-08-17T16:46:03.852Z,29.50
2022-08-17T16:48:31.808Z,29.40
2022-08-17T16:51:04.433Z,29.40
2022-08-17T16:53:32.602Z,29.30
2022-08-17T16:56:00.424Z,29.30
2022-08-17T16:58:28.237Z,29.30
2022-08-17T17:00:59.387Z,29.30
2022-08-17T17:03:30.005Z,29.20
2022-08-17T17:06:08.006Z,29.10
2022-08-17T17:08:43.603Z,29.00
2022-08-17T17:11:15.394Z,29.00
2022-08-17T17:13:47.755Z,28.80
2022-08-17T17:16:21.516Z,28.80
2022-08-17T17:19:01.755Z,28.70
2022-08-17T17:21:45.073Z,28.60
2022-08-17T17:24:17.862Z,28.40
2022-08-17T17:26:59.736Z,28.30
2022-08-17T17:29:48.216Z,28.10
2022-08-17T17:32:22.441Z,28.00
2022-08-17T17:34:55.050Z,27.80
2022-08-17T17:37:33.101Z,27.60
2022-08-17T17:40:05.606Z,27.50
2022-08-17T17:42:34.220Z,27.40
2022-08-17T17:45:08.422Z,27.40
2022-08-17T17:47:38.005Z,27.20
2022-08-17T17:50:08.408Z,27.10
2022-08-17T17:52:47.562Z,26.90
2022-08-17T17:55:25.857Z,26.80
2022-08-17T17:58:04.184Z,26.60
2022-08-17T18:00:40.123Z,26.60
2022-08-17T18:03:20.362Z,26.50
2022-08-17T18:06:09.732Z,26.50
2022-08-17T18:08:55.496Z,26.50
2022-08-17T18:11:39.502Z,26.40
2022-08-17T18:14:17.233Z,26.30
2022-08-17T18:16:46.560Z,26.20
2022-08-17T18:19:16.349Z,26.20
2022-08-17T18:21:49.736Z,26.10
2022-08-17T18:24:30.330Z,26.00
2022-08-17T18:26:59.771Z,25.90
2022-08-17T18:29:43.661Z,25.90
2022-08-17T18:32:28.685Z,25.60
2022-08-17T18:34:59.094Z,25.40
2022-08-17T18:37:37.774Z,25.30
2022-08-17T18:40:30.042Z,25.10
2022-08-17T18:43:07.177Z,25.00
2022-08-17T18:45:42.640Z,25.00
2022-08-17T18:48:29.674Z,25.00
2022-08-17T18:51:05.873Z,25.00
2022-08-17T18:53:37.402Z,24.90
2022-08-17T18:56:30.526Z,24.70
2022-08-17T18:59:04.692Z,24.60
2022-08-17T19:01:52.695Z,24.40
2022-08-17T19:04:33.890Z,24.30
2022-08-17T19:07:26.298Z,24.20
2022-08-17T19:09:57.901Z,24.00
2022-08-17T19:12:31.963Z,23.90
2022-08-17T19:15:01.585Z,23.80
2022-08-17T19:17:45.083Z,23.80
2022-08-17T19:20:18.114Z,23.80
2022-08-17T19:23:04.509Z,23.70
2022-08-17T19:25:35.640Z,23.60
2022-08-17T19:28:22.487Z,23.50
2022-08-17T19:30:55.785Z,23.70
2022-08-17T19:33:23.742Z,23.70
2022-08-17T19:36:01.770Z,23.60
2022-08-17T19:38:43.120Z,23.50
2022-08-17T19:41:20.230Z,23.50
2022-08-17T19:44:09.538Z,23.50
2022-08-17T19:46:50.094Z,23.40
2022-08-17T19:49:34.453Z,23.50
2022-08-17T19:52:19.004Z,23.40
2022-08-17T19:54:55.426Z,23.40
2022-08-17T19:57:33.620Z,23.40
2022-08-17T20:00:06.394Z,23.50
2022-08-17T20:02:42.524Z,23.50
2022-08-17T20:05:16.275Z,23.50
2022-08-17T20:07:50.744Z,23.30
2022-08-17T20:10:29.609Z,23.10
2022-08-17T20:13:03.950Z,22.90
2022-08-17T20:15:38.093Z,22.70
2022-08-17T20:18:14.266Z,22.60
2022-08-17T20:20:48.515Z,22.60
2022-08-17T20:23:43.025Z,22.50
2022-08-17T20:26:19.718Z,22.60
2022-08-17T20:29:08.715Z,22.60
2022-08-17T20:31:47.156Z,22.60
2022-08-17T20:34:36.747Z,22.70
2022-08-17T20:37:09.123Z,22.70
2022-08-17T20:39:40.371Z,22.70
2022-08-17T20:42:30.009Z,22.60
2022-08-17T20:45:02.119Z,22.50
2022-08-17T20:47:34.932Z,22.40
2022-08-17T20:50:06.882Z,22.30
2022-08-17T20:52:51.335Z,22.30
2022-08-17T20:55:53.085Z,22.40
2022-08-17T20:58:48.838Z,22.40
2022-08-17T21:01:24.158Z,22.40
2022-08-17T21:03:56.015Z,22.40
2022-08-17T21:06:26.154Z,22.30
2022-08-17T21:08:59.666Z,22.30
2022-08-17T21:12:04.480Z,22.40
2022-08-17T21:14:56.146Z,22.40
2022-08-17T21:17:45.295Z,22.40
2022-08-17T21:20:32.203Z,22.40
2022-08-17T21:23:27.270Z,22.30
2022-08-17T21:26:17.507Z,22.20
2022-08-17T21:29:01.580Z,22.10
2022-08-17T21:31:50.830Z,22.10
2022-08-17T21:34:27.217Z,22.00
2022-08-17T21:37:23.324Z,22.10
2022-08-17T21:39:54.202Z,22.10
2022-08-17T21:42:25.915Z,22.00
2022-08-17T21:44:58.925Z,21.80
2022-08-17T21:47:30.854Z,21.90
2022-08-17T21:50:16.308Z,21.90
2022-08-17T21:52:45.931Z,21.80
2022-08-17T21:55:22.888Z,21.90
2022-08-17T21:58:12.173Z,21.70
2022-08-17T22:00:39.329Z,21.60
2022-08-17T22:03:21.999Z,21.50
2022-08-17T22:05:51.291Z,21.40
2022-08-17T22:08:25.344Z,21.30
2022-08-17T22:11:01.728Z,21.30
2022-08-17T22:13:30.136Z,21.20
2022-08-17T22:16:15.468Z,21.10
2022-08-17T22:18:57.722Z,21.20
2022-08-17T22:21:25.591Z,21.10
2022-08-17T22:24:07.326Z,21.00
2022-08-17T22:27:06.916Z,21.10
2022-08-17T22:29:53.233Z,21.10
2022-08-17T22:32:41.356Z,21.20
2022-08-17T22:35:28.421Z,21.20
2022-08-17T22:37:56.273Z,21.10
2022-08-17T22:40:31.597Z,21.00
2022-08-17T22:43:01.277Z,20.90
2022-08-17T22:45:29.769Z,20.80
2022-08-17T22:47:59.677Z,20.80
2022-08-17T22:50:31.355Z,20.80
2022-08-17T22:53:19.038Z,20.70
2022-08-17T22:56:11.051Z,20.80
2022-08-17T22:59:02.858Z,21.00
2022-08-17T23:01:33.322Z,21.10
2022-08-17T23:04:02.861Z,21.30
2022-08-17T23:06:33.705Z,21.20
2022-08-17T23:09:03.858Z,20.90
2022-08-17T23:11:47.899Z,20.80
2022-08-17T23:14:19.973Z,20.70
2022-08-17T23:16:48.641Z,20.60
2022-08-17T23:19:18.646Z,20.70
2022-08-17T23:21:46.873Z,20.80
2022-08-17T23:24:20.419Z,20.90
2022-08-17T23:26:49.838Z,21.00
2022-08-17T23:29:20.527Z,21.00
2022-08-17T23:31:49.175Z,21.00
2022-08-17T23:34:18.441Z,21.00
2022-08-17T23:36:52.452Z,21.00
2022-08-17T23:39:27.725Z,21.10
2022-08-17T23:41:58.671Z,21.00
2022-08-17T23:44:27.204Z,20.90
2022-08-17T23:46:55.578Z,20.90
2022-08-17T23:49:23.458Z,20.90
2022-08-17T23:51:52.528Z,20.90
2022-08-17T23:54:24.910Z,20.80
2022-08-17T23:56:52.801Z,20.80
2022-08-17T23:59:23.680Z,20.80
